createdAt,value
2022-08-26T00:00:27.174Z,43.91
2022-08-26T00:01:29.711Z,44.20
2022-08-26T00:02:31.569Z,43.89
2022-08-26T00:03:34.039Z,44.15
2022-08-26T00:04:35.576Z,44.28
2022-08-26T00:05:37.085Z,44.36
2022-08-26T00:06:38.667Z,44.27
2022-08-26T00:07:44.253Z,44.17
2022-08-26T00:08:46.347Z,44.44
2022-08-26T00:09:49.971Z,44.43
2022-08-26T00:10:51.615Z,44.49
2022-08-26T00:11:53.942Z,44.52
2022-08-26T00:12:55.509Z,44.47
2022-08-26T00:13:57.944Z,44.34
2022-08-26T00:14:59.731Z,44.37
2022-08-26T00:16:02.290Z,44.28
2022-08-26T00:17:04.086Z,44.51
2022-08-26T00:18:22.333Z,44.56
2022-08-26T00:19:24.253Z,44.60
2022-08-26T00:20:26.666Z,44.46
2022-08-26T00:21:28.375Z,44.81
2022-08-26T00:22:31.194Z,44.56
2022-08-26T00:23:32.776Z,44.85
2022-08-26T00:24:34.287Z,44.81
2022-08-26T00:25:35.831Z,44.84
2022-08-26T00:26:44.002Z,44.64
2022-08-26T00:27:46.197Z,44.88
2022-08-26T00:28:49.946Z,44.97
2022-08-26T00:29:51.499Z,45.08
2022-08-26T00:30:52.986Z,45.25
2022-08-26T00:31:54.672Z,45.14
2022-08-26T00:32:56.719Z,44.96
2022-08-26T00:33:58.601Z,45.21
2022-08-26T00:35:01.023Z,45.08
2022-08-26T00:36:03.496Z,45.21
2022-08-26T00:37:08.949Z,45.19
2022-08-26T00:38:11.957Z,45.35
2022-08-26T00:39:13.507Z,45.23
2022-08-26T00:40:16.417Z,45.25
2022-08-26T00:41:19.191Z,45.20
2022-08-26T00:42:21.236Z,45.39
2022-08-26T00:43:23.675Z,45.47
2022-08-26T00:44:25.259Z,45.45
2022-08-26T00:45:27.353Z,45.51
2022-08-26T00:46:29.198Z,45.37
2022-08-26T00:47:32.211Z,45.35
2022-08-26T00:48:33.933Z,45.24
2022-08-26T00:49:40.687Z,45.60
2022-08-26T00:50:42.811Z,45.38
2022-08-26T00:51:45.771Z,45.58
2022-08-26T00:52:47.265Z,45.44
2022-08-26T00:53:57.386Z,45.37
2022-08-26T00:55:09.931Z,45.61
2022-08-26T00:56:20.671Z,45.46
2022-08-26T00:57:22.148Z,45.38
2022-08-26T00:58:24.067Z,45.74
2022-08-26T00:59:26.573Z,45.65
2022-08-26T01:00:28.735Z,45.63
2022-08-26T01:01:30.705Z,45.87
2022-08-26T01:02:32.366Z,45.82
2022-08-26T01:03:33.987Z,46.02
2022-08-26T01:04:36.441Z,46.04
2022-08-26T01:05:39.072Z,46.01
2022-08-26T01:06:41.615Z,46.05
2022-08-26T01:07:46.268Z,46.17
2022-08-26T01:08:48.359Z,46.18
2022-08-26T01:09:50.264Z,46.23
2022-08-26T01:10:52.500Z,46.05
2022-08-26T01:11:57.957Z,46.35
2022-08-26T01:13:00.636Z,46.30
2022-08-26T01:14:02.792Z,46.25
2022-08-26T01:15:04.556Z,46.23
2022-08-26T01:16:08.268Z,46.30
2022-08-26T01:17:10.241Z,46.28
2022-08-26T01:18:11.906Z,46.06
2022-08-26T01:19:33.095Z,46.06
2022-08-26T01:20:46.711Z,46.03
2022-08-26T01:21:49.830Z,46.00
2022-08-26T01:22:53.488Z,46.04
2022-08-26T01:23:57.242Z,46.06
2022-08-26T01:24:59.129Z,46.24
2022-08-26T01:26:02.444Z,46.30
2022-08-26T01:27:05.571Z,46.21
2022-08-26T01:28:09.077Z,46.14
2022-08-26T01:29:13.277Z,46.15
2022-08-26T01:30:14.786Z,46.17
2022-08-26T01:31:17.986Z,46.19
2022-08-26T01:32:19.754Z,46.18
2022-08-26T01:33:23.598Z,46.26
2022-08-26T01:34:28.203Z,46.40
2022-08-26T01:35:30.271Z,46.44
2022-08-26T01:36:31.826Z,46.32
2022-08-26T01:37:33.976Z,46.48
2022-08-26T01:38:35.587Z,46.26
2022-08-26T01:39:37.115Z,46.24
2022-08-26T01:40:39.583Z,46.44
2022-08-26T01:41:44.031Z,46.54
2022-08-26T01:42:46.839Z,46.42
2022-08-26T01:43:49.683Z,46.45
2022-08-26T01:44:52.680Z,46.37
2022-08-26T01:45:57.188Z,46.41
2022-08-26T01:46:58.823Z,46.33
2022-08-26T01:48:01.751Z,46.30
2022-08-26T01:49:03.806Z,46.45
2022-08-26T01:50:10.784Z,46.40
2022-08-26T01:51:13.095Z,46.25
2022-08-26T01:52:17.980Z,46.31
2022-08-26T01:53:19.489Z,46.03
2022-08-26T01:54:23.106Z,46.13
2022-08-26T01:55:33.047Z,46.20
2022-08-26T01:56:36.530Z,46.29
2022-08-26T01:57:38.228Z,46.49
2022-08-26T01:58:43.487Z,46.47
2022-08-26T01:59:45.785Z,46.51
2022-08-26T02:00:47.391Z,46.51
2022-08-26T02:01:51.997Z,46.77
2022-08-26T02:03:13.681Z,46.85
2022-08-26T02:04:15.483Z,46.77
2022-08-26T02:05:18.191Z,46.84
2022-08-26T02:06:19.882Z,46.90
2022-08-26T02:07:21.541Z,46.87
2022-08-26T02:08:25.591Z,46.89
2022-08-26T02:09:27.572Z,47.02
2022-08-26T02:10:29.057Z,46.86
2022-08-26T02:11:30.626Z,46.87
2022-08-26T02:12:32.323Z,46.88
2022-08-26T02:13:34.341Z,47.00
2022-08-26T02:14:43.797Z,46.94
2022-08-26T02:15:45.943Z,46.87
2022-08-26T02:16:47.841Z,47.10
2022-08-26T02:17:52.569Z,47.00
2022-08-26T02:18:54.447Z,47.00
2022-08-26T02:19:57.088Z,47.00
2022-08-26T02:20:58.596Z,46.98
2022-08-26T02:22:00.793Z,47.10
2022-08-26T02:23:02.807Z,46.87
2022-08-26T02:24:11.734Z,46.99
2022-08-26T02:25:18.071Z,47.17
2022-08-26T02:26:20.606Z,47.06
2022-08-26T02:27:23.748Z,47.02
2022-08-26T02:28:26.942Z,47.23
2022-08-26T02:29:33.028Z,47.14
2022-08-26T02:30:34.662Z,47.26
2022-08-26T02:31:37.323Z,47.32
2022-08-26T02:32:40.180Z,47.32
2022-08-26T02:33:43.046Z,47.37
2022-08-26T02:34:45.573Z,47.53
2022-08-26T02:35:48.127Z,47.56
2022-08-26T02:36:49.753Z,47.58
2022-08-26T02:37:52.518Z,47.49
2022-08-26T02:38:54.196Z,47.42
2022-08-26T02:39:57.333Z,47.57
2022-08-26T02:40:58.862Z,47.60
2022-08-26T02:42:01.412Z,47.58
2022-08-26T02:43:03.193Z,47.43
2022-08-26T02:44:04.888Z,47.49
2022-08-26T02:45:07.450Z,47.62
2022-08-26T02:46:09.341Z,47.68
2022-08-26T02:47:12.995Z,47.76
2022-08-26T02:48:15.434Z,47.85
2022-08-26T02:49:17.287Z,47.80
2022-08-26T02:50:18.925Z,47.77
2022-08-26T02:51:20.598Z,47.69
2022-08-26T02:52:23.891Z,47.73
2022-08-26T02:53:25.780Z,47.85
2022-08-26T02:54:27.997Z,47.90
2022-08-26T02:55:29.988Z,47.75
2022-08-26T02:56:33.014Z,47.96
2022-08-26T02:57:35.114Z,47.81
2022-08-26T02:58:37.093Z,47.79
2022-08-26T02:59:40.041Z,47.93
2022-08-26T03:00:53.502Z,48.04
2022-08-26T03:01:56.129Z,48.13
2022-08-26T03:02:58.724Z,47.89
2022-08-26T03:04:00.808Z,48.00
2022-08-26T03:05:03.132Z,47.84
2022-08-26T03:06:05.111Z,47.91
2022-08-26T03:07:07.088Z,47.79
2022-08-26T03:08:11.767Z,47.90
2022-08-26T03:09:18.503Z,48.08
2022-08-26T03:10:21.478Z,48.09
2022-08-26T03:11:23.743Z,48.06
2022-08-26T03:12:26.664Z,48.04
2022-08-26T03:13:28.399Z,48.00
2022-08-26T03:14:30.480Z,48.14
2022-08-26T03:15:32.545Z,48.03
2022-08-26T03:16:35.187Z,48.00
2022-08-26T03:17:36.885Z,47.98
2022-08-26T03:18:38.742Z,48.09
2022-08-26T03:19:40.467Z,48.05
2022-08-26T03:20:43.123Z,48.29
2022-08-26T03:21:47.334Z,48.24
2022-08-26T03:22:51.520Z,48.23
2022-08-26T03:23:53.344Z,48.27
2022-08-26T03:24:55.101Z,48.29
2022-08-26T03:25:56.961Z,48.34
2022-08-26T03:26:58.509Z,48.28
2022-08-26T03:28:00.087Z,48.32
2022-08-26T03:29:20.551Z,48.05
2022-08-26T03:30:44.687Z,48.18
2022-08-26T03:31:47.303Z,48.26
2022-08-26T03:32:49.276Z,48.32
2022-08-26T03:33:51.439Z,48.48
2022-08-26T03:34:53.726Z,48.23
2022-08-26T03:35:55.611Z,48.36
2022-08-26T03:36:58.232Z,48.40
2022-08-26T03:38:00.314Z,48.38
2022-08-26T03:39:03.454Z,48.41
2022-08-26T03:40:05.531Z,48.61
2022-08-26T03:41:08.188Z,48.47
2022-08-26T03:42:09.694Z,48.70
2022-08-26T03:43:12.595Z,48.66
2022-08-26T03:44:15.363Z,48.56
2022-08-26T03:45:17.487Z,48.76
2022-08-26T03:46:20.213Z,48.73
2022-08-26T03:47:23.274Z,48.73
2022-08-26T03:48:24.924Z,48.86
2022-08-26T03:49:28.860Z,48.89
2022-08-26T03:50:31.243Z,48.87
2022-08-26T03:51:38.807Z,49.02
2022-08-26T03:52:43.860Z,49.02
2022-08-26T03:53:46.054Z,48.93
2022-08-26T03:54:47.655Z,49.04
2022-08-26T03:55:49.167Z,49.04
2022-08-26T03:56:53.931Z,49.11
2022-08-26T03:57:55.831Z,49.17
2022-08-26T03:58:57.401Z,49.15
2022-08-26T03:59:58.963Z,49.10
2022-08-26T04:01:00.511Z,49.20
2022-08-26T04:02:08.608Z,49.29
2022-08-26T04:03:18.213Z,49.37
2022-08-26T04:04:22.888Z,49.37
2022-08-26T04:05:26.100Z,49.33
2022-08-26T04:06:31.076Z,49.48
2022-08-26T04:07:32.603Z,49.25
2022-08-26T04:08:34.747Z,49.37
2022-08-26T04:09:36.229Z,49.38
2022-08-26T04:10:38.321Z,49.23
2022-08-26T04:11:39.927Z,49.56
2022-08-26T04:12:41.605Z,49.34
2022-08-26T04:13:43.384Z,49.14
2022-08-26T04:14:44.861Z,49.05
2022-08-26T04:15:46.429Z,49.22
2022-08-26T04:16:48.170Z,49.11
2022-08-26T04:17:49.710Z,49.03
2022-08-26T04:18:51.290Z,49.13
2022-08-26T04:19:53.411Z,48.97
2022-08-26T04:20:55.719Z,48.91
2022-08-26T04:21:57.352Z,49.06
2022-08-26T04:22:58.861Z,48.96
2022-08-26T04:24:00.554Z,48.92
2022-08-26T04:25:06.777Z,48.92
2022-08-26T04:26:08.440Z,49.07
2022-08-26T04:27:10.607Z,49.07
2022-08-26T04:28:14.085Z,49.11
2022-08-26T04:29:17.816Z,48.98
2022-08-26T04:30:22.535Z,48.89
2022-08-26T04:31:26.382Z,48.85
2022-08-26T04:32:32.461Z,48.84
2022-08-26T04:33:33.991Z,49.13
2022-08-26T04:34:43.581Z,49.00
2022-08-26T04:35:46.517Z,49.12
2022-08-26T04:36:49.656Z,49.21
2022-08-26T04:37:51.735Z,49.25
2022-08-26T04:38:53.471Z,49.13
2022-08-26T04:39:55.672Z,49.31
2022-08-26T04:40:57.619Z,49.29
2022-08-26T04:41:59.687Z,49.48
2022-08-26T04:43:03.621Z,49.22
2022-08-26T04:44:06.768Z,49.32
2022-08-26T04:45:10.265Z,49.33
2022-08-26T04:46:13.700Z,49.32
2022-08-26T04:47:16.392Z,49.31
2022-08-26T04:48:18.197Z,49.15
2022-08-26T04:49:20.578Z,49.15
2022-08-26T04:50:23.554Z,49.10
2022-08-26T04:51:28.280Z,48.96
2022-08-26T04:52:30.255Z,49.03
2022-08-26T04:53:33.224Z,49.29
2022-08-26T04:54:35.446Z,49.29
2022-08-26T04:55:38.635Z,49.40
2022-08-26T04:56:43.144Z,49.39
2022-08-26T04:57:45.577Z,49.45
2022-08-26T04:58:47.895Z,49.39
2022-08-26T04:59:49.741Z,49.42
2022-08-26T05:00:52.599Z,49.33
2022-08-26T05:01:57.444Z,49.57
2022-08-26T05:03:00.795Z,49.32
2022-08-26T05:04:03.683Z,49.31
2022-08-26T05:05:10.103Z,49.47
2022-08-26T05:06:12.325Z,49.32
2022-08-26T05:07:14.030Z,49.34
2022-08-26T05:08:19.607Z,49.34
2022-08-26T05:09:21.154Z,49.29
2022-08-26T05:10:23.554Z,49.38
2022-08-26T05:11:25.098Z,49.44
2022-08-26T05:12:27.787Z,49.27
2022-08-26T05:13:29.367Z,49.24
2022-08-26T05:14:31.127Z,49.51
2022-08-26T05:15:33.775Z,49.30
2022-08-26T05:16:35.351Z,49.40
2022-08-26T05:17:37.910Z,49.49
2022-08-26T05:18:39.833Z,49.36
2022-08-26T05:19:43.050Z,49.63
2022-08-26T05:20:45.438Z,49.54
2022-08-26T05:21:48.719Z,49.45
2022-08-26T05:22:50.371Z,49.52
2022-08-26T05:23:54.769Z,49.56
2022-08-26T05:24:56.261Z,49.46
2022-08-26T05:25:59.310Z,49.56
2022-08-26T05:27:03.137Z,49.53
2022-08-26T05:28:14.158Z,49.73
2022-08-26T05:29:15.847Z,49.65
2022-08-26T05:30:18.394Z,49.70
2022-08-26T05:31:20.874Z,49.59
2022-08-26T05:32:22.496Z,49.58
2022-08-26T05:33:24.100Z,49.48
2022-08-26T05:34:30.194Z,49.75
2022-08-26T05:35:34.072Z,49.77
2022-08-26T05:36:36.043Z,49.64
2022-08-26T05:37:38.864Z,49.75
2022-08-26T05:38:40.473Z,49.79
2022-08-26T05:39:51.341Z,49.85
2022-08-26T05:40:53.192Z,49.89
2022-08-26T05:41:54.968Z,49.83
2022-08-26T05:42:56.522Z,49.83
2022-08-26T05:43:58.252Z,49.78
2022-08-26T05:44:59.941Z,49.73
2022-08-26T05:46:05.737Z,49.81
2022-08-26T05:47:07.572Z,49.78
2022-08-26T05:48:10.392Z,49.74
2022-08-26T05:49:13.036Z,49.57
2022-08-26T05:50:14.786Z,49.64
2022-08-26T05:51:16.309Z,49.68
2022-08-26T05:52:17.816Z,49.83
2022-08-26T05:53:20.757Z,49.83
2022-08-26T05:54:22.586Z,49.88
2022-08-26T05:55:24.134Z,49.79
2022-08-26T05:56:27.598Z,49.82
2022-08-26T05:57:29.884Z,49.77
2022-08-26T05:58:31.655Z,49.89
2022-08-26T05:59:33.172Z,49.84
2022-08-26T06:00:37.412Z,49.76
2022-08-26T06:01:39.690Z,49.80
2022-08-26T06:02:41.295Z,49.94
2022-08-26T06:03:45.010Z,50.12
2022-08-26T06:04:47.411Z,50.00
2022-08-26T06:05:48.996Z,49.95
2022-08-26T06:06:50.814Z,49.98
2022-08-26T06:08:11.134Z,49.78
2022-08-26T06:09:12.654Z,49.93
2022-08-26T06:10:32.363Z,49.94
2022-08-26T06:11:34.456Z,49.73
2022-08-26T06:12:36.081Z,49.59
2022-08-26T06:13:37.934Z,49.42
2022-08-26T06:14:39.854Z,49.44
2022-08-26T06:15:42.312Z,49.56
2022-08-26T06:16:45.104Z,49.35
2022-08-26T06:17:46.691Z,49.48
2022-08-26T06:18:48.382Z,49.44
2022-08-26T06:19:49.875Z,49.62
2022-08-26T06:20:57.004Z,49.64
2022-08-26T06:22:22.309Z,49.38
2022-08-26T06:23:44.372Z,49.43
2022-08-26T06:25:04.520Z,49.40
2022-08-26T06:26:06.187Z,49.40
2022-08-26T06:27:09.936Z,49.43
2022-08-26T06:28:14.970Z,49.43
2022-08-26T06:29:24.055Z,49.40
2022-08-26T06:30:26.260Z,49.22
2022-08-26T06:31:28.343Z,49.31
2022-08-26T06:32:30.802Z,49.19
2022-08-26T06:33:32.568Z,49.33
2022-08-26T06:34:34.404Z,49.40
2022-08-26T06:35:36.848Z,49.30
2022-08-26T06:36:39.438Z,49.22
2022-08-26T06:37:42.826Z,49.16
2022-08-26T06:38:44.337Z,49.18
2022-08-26T06:39:46.089Z,48.92
2022-08-26T06:40:48.729Z,49.02
2022-08-26T06:41:51.027Z,49.16
2022-08-26T06:42:52.591Z,49.10
2022-08-26T06:43:56.612Z,49.29
2022-08-26T06:44:58.087Z,49.17
2022-08-26T06:46:01.142Z,49.16
2022-08-26T06:47:02.676Z,49.09
2022-08-26T06:48:04.889Z,49.06
2022-08-26T06:49:08.457Z,49.18
2022-08-26T06:50:11.858Z,49.23
2022-08-26T06:51:14.409Z,49.17
2022-08-26T06:52:21.190Z,49.11
2022-08-26T06:53:27.928Z,49.22
2022-08-26T06:54:31.733Z,49.06
2022-08-26T06:55:34.174Z,48.91
2022-08-26T06:56:40.647Z,48.93
2022-08-26T06:57:42.236Z,49.00
2022-08-26T06:58:43.783Z,48.75
2022-08-26T06:59:45.311Z,48.98
2022-08-26T07:00:47.378Z,48.68
2022-08-26T07:01:49.752Z,48.67
2022-08-26T07:02:51.538Z,48.74
2022-08-26T07:03:54.268Z,49.04
2022-08-26T07:04:58.918Z,48.78
2022-08-26T07:06:03.316Z,49.04
2022-08-26T07:07:05.346Z,48.97
2022-08-26T07:08:06.929Z,48.69
2022-08-26T07:09:10.138Z,48.43
2022-08-26T07:10:11.756Z,48.23
2022-08-26T07:11:13.270Z,47.85
2022-08-26T07:12:14.759Z,48.49
2022-08-26T07:13:16.416Z,48.62
2022-08-26T07:14:32.224Z,48.03
2022-08-26T07:15:35.821Z,48.16
2022-08-26T07:16:38.599Z,48.49
2022-08-26T07:17:40.109Z,48.18
2022-08-26T07:18:42.299Z,48.21
2022-08-26T07:19:46.666Z,48.26
2022-08-26T07:20:48.378Z,47.72
2022-08-26T07:21:49.889Z,47.91
2022-08-26T07:22:51.613Z,47.92
2022-08-26T07:23:56.439Z,48.13
2022-08-26T07:25:01.684Z,48.21
2022-08-26T07:26:09.333Z,48.10
2022-08-26T07:27:12.051Z,48.46
2022-08-26T07:28:13.575Z,48.01
2022-08-26T07:29:16.905Z,47.89
2022-08-26T07:30:18.711Z,46.86
2022-08-26T07:31:21.276Z,47.53
2022-08-26T07:32:23.083Z,46.63
2022-08-26T07:33:24.786Z,46.91
2022-08-26T07:34:26.538Z,46.52
2022-08-26T07:35:28.130Z,46.37
2022-08-26T07:36:30.290Z,46.15
2022-08-26T07:37:35.514Z,46.38
2022-08-26T07:38:40.727Z,46.56
2022-08-26T07:39:43.336Z,46.00
2022-08-26T07:40:45.280Z,46.57
2022-08-26T07:41:47.794Z,46.37
2022-08-26T07:42:49.374Z,45.79
2022-08-26T07:43:51.638Z,46.04
2022-08-26T07:44:53.629Z,45.54
2022-08-26T07:45:55.240Z,45.64
2022-08-26T07:46:57.119Z,45.64
2022-08-26T07:47:58.778Z,45.94
2022-08-26T07:49:00.405Z,45.37
2022-08-26T07:50:01.971Z,45.56
2022-08-26T07:51:03.620Z,45.70
2022-08-26T07:52:05.513Z,45.17
2022-08-26T07:53:07.172Z,45.62
2022-08-26T07:54:12.249Z,45.47
2022-08-26T07:55:14.573Z,45.48
2022-08-26T07:56:16.204Z,45.54
2022-08-26T07:57:19.086Z,45.44
2022-08-26T07:58:20.744Z,45.54
2022-08-26T07:59:23.284Z,45.14
2022-08-26T08:00:24.789Z,45.11
2022-08-26T08:01:30.807Z,44.87
2022-08-26T08:02:32.938Z,45.07
2022-08-26T08:03:36.307Z,44.79
2022-08-26T08:04:37.899Z,44.87
2022-08-26T08:05:41.250Z,44.93
2022-08-26T08:06:43.867Z,44.85
2022-08-26T08:07:45.657Z,44.51
2022-08-26T08:08:48.199Z,44.27
2022-08-26T08:09:52.517Z,44.33
2022-08-26T08:10:54.135Z,44.25
2022-08-26T08:11:55.682Z,44.37
2022-08-26T08:12:57.590Z,44.43
2022-08-26T08:14:01.070Z,44.25
2022-08-26T08:15:03.061Z,44.30
2022-08-26T08:16:05.306Z,44.02
2022-08-26T08:17:06.992Z,44.10
2022-08-26T08:18:15.673Z,43.84
2022-08-26T08:19:18.054Z,43.77
2022-08-26T08:20:19.746Z,43.99
2022-08-26T08:21:24.091Z,43.82
2022-08-26T08:22:25.849Z,43.80
2022-08-26T08:23:29.039Z,43.59
2022-08-26T08:24:33.426Z,43.71
2022-08-26T08:25:35.108Z,43.78
2022-08-26T08:26:36.676Z,43.97
2022-08-26T08:27:38.504Z,43.89
2022-08-26T08:28:40.022Z,43.52
2022-08-26T08:29:43.161Z,43.54
2022-08-26T08:30:44.756Z,43.32
2022-08-26T08:31:58.424Z,43.16
2022-08-26T08:33:01.699Z,43.50
2022-08-26T08:34:03.522Z,43.21
2022-08-26T08:35:11.534Z,42.91
2022-08-26T08:36:18.419Z,42.68
2022-08-26T08:37:23.008Z,42.53
2022-08-26T08:38:25.287Z,42.67
2022-08-26T08:39:27.905Z,42.96
2022-08-26T08:40:29.503Z,41.93
2022-08-26T08:41:31.481Z,41.94
2022-08-26T08:42:45.959Z,42.29
2022-08-26T08:43:48.736Z,42.30
2022-08-26T08:44:52.155Z,41.89
2022-08-26T08:45:54.833Z,41.77
2022-08-26T08:46:58.301Z,41.84
2022-08-26T08:48:01.042Z,41.57
2022-08-26T08:49:04.215Z,41.61
2022-08-26T08:50:18.079Z,42.08
2022-08-26T08:51:19.571Z,41.79
2022-08-26T08:52:24.284Z,41.38
2022-08-26T08:53:34.839Z,40.90
2022-08-26T08:54:36.353Z,40.86
2022-08-26T08:55:45.111Z,41.06
2022-08-26T08:56:54.746Z,40.29
2022-08-26T08:58:02.627Z,40.42
2022-08-26T08:59:06.917Z,40.47
2022-08-26T09:00:10.989Z,40.59
2022-08-26T09:01:15.298Z,40.95
2022-08-26T09:02:23.207Z,40.51
2022-08-26T09:03:31.195Z,40.53
2022-08-26T09:04:41.931Z,40.92
2022-08-26T09:05:48.717Z,40.97
2022-08-26T09:06:51.975Z,40.54
2022-08-26T09:07:55.500Z,40.66
2022-08-26T09:08:57.015Z,40.44
2022-08-26T09:09:59.920Z,40.46
2022-08-26T09:11:02.382Z,40.68
2022-08-26T09:12:04.373Z,40.78
2022-08-26T09:13:07.033Z,41.03
2022-08-26T09:14:08.556Z,40.80
2022-08-26T09:15:26.387Z,40.87
2022-08-26T09:16:37.943Z,40.88
2022-08-26T09:17:57.383Z,40.21
2022-08-26T09:19:18.842Z,40.37
2022-08-26T09:20:39.098Z,40.57
2022-08-26T09:21:40.778Z,40.61
2022-08-26T09:22:44.253Z,40.42
2022-08-26T09:23:49.299Z,40.71
2022-08-26T09:24:52.289Z,40.76
2022-08-26T09:27:01.236Z,40.68
2022-08-26T09:28:02.941Z,40.84
2022-08-26T09:29:08.912Z,40.37
2022-08-26T09:30:12.002Z,40.54
2022-08-26T09:31:25.004Z,40.76
2022-08-26T09:32:30.154Z,40.64
2022-08-26T09:33:31.827Z,40.38
2022-08-26T09:34:33.542Z,40.04
2022-08-26T09:35:36.331Z,40.02
2022-08-26T09:36:48.561Z,39.96
2022-08-26T09:38:51.920Z,39.86
2022-08-26T09:39:53.515Z,39.53
2022-08-26T09:41:06.804Z,39.62
2022-08-26T09:42:14.263Z,39.18
2022-08-26T09:43:22.838Z,39.51
2022-08-26T09:44:24.651Z,39.49
2022-08-26T09:45:29.033Z,39.34
2022-08-26T09:46:31.825Z,39.26
2022-08-26T09:47:34.544Z,39.19
2022-08-26T09:48:37.193Z,39.32
2022-08-26T09:49:42.153Z,39.88
2022-08-26T09:50:56.982Z,39.53
2022-08-26T09:52:05.758Z,39.68
2022-08-26T09:53:28.775Z,39.71
2022-08-26T09:54:32.499Z,38.94
2022-08-26T09:55:35.240Z,38.60
2022-08-26T09:56:37.508Z,39.11
2022-08-26T09:57:51.391Z,38.87
2022-08-26T09:58:53.063Z,38.69
2022-08-26T09:59:55.187Z,38.60
2022-08-26T10:00:57.311Z,38.78
2022-08-26T10:02:15.319Z,38.78
2022-08-26T10:03:24.124Z,37.98
2022-08-26T10:04:26.686Z,38.19
2022-08-26T10:05:31.354Z,37.73
2022-08-26T10:06:34.518Z,38.13
2022-08-26T10:07:43.454Z,37.74
2022-08-26T10:08:47.467Z,37.78
2022-08-26T10:09:49.324Z,37.65
2022-08-26T10:10:53.870Z,37.68
2022-08-26T10:11:56.314Z,37.60
2022-08-26T10:13:00.365Z,37.73
2022-08-26T10:14:25.082Z,37.51
2022-08-26T10:15:26.692Z,37.62
2022-08-26T10:16:47.355Z,37.10
2022-08-26T10:17:50.084Z,36.99
2022-08-26T10:19:02.725Z,36.90
2022-08-26T10:20:23.562Z,36.63
2022-08-26T10:21:27.651Z,36.65
2022-08-26T10:22:41.098Z,36.48
2022-08-26T10:23:43.768Z,36.13
2022-08-26T10:24:53.139Z,36.11
2022-08-26T10:25:58.993Z,36.19
2022-08-26T10:27:33.980Z,35.99
2022-08-26T10:28:44.409Z,35.85
2022-08-26T10:29:46.596Z,35.75
2022-08-26T10:31:10.731Z,35.48
2022-08-26T10:32:26.320Z,35.29
2022-08-26T10:33:29.473Z,35.05
2022-08-26T10:34:32.081Z,35.04
2022-08-26T10:35:34.008Z,34.81
2022-08-26T10:37:13.587Z,34.62
2022-08-26T10:38:12.104Z,34.61
2022-08-26T10:39:15.003Z,34.82
2022-08-26T10:40:28.448Z,34.75
2022-08-26T10:41:32.222Z,34.56
2022-08-26T10:42:43.226Z,34.19
2022-08-26T10:44:02.514Z,33.51
2022-08-26T10:45:11.781Z,33.68
2022-08-26T10:46:17.082Z,33.80
2022-08-26T10:47:25.660Z,33.51
2022-08-26T10:48:35.232Z,33.59
2022-08-26T10:49:36.871Z,33.75
2022-08-26T10:50:39.981Z,33.77
2022-08-26T10:51:47.850Z,33.91
2022-08-26T10:52:55.073Z,34.01
2022-08-26T10:53:56.647Z,34.01
2022-08-26T10:55:28.323Z,34.08
2022-08-26T10:56:49.015Z,34.13
2022-08-26T10:57:59.458Z,34.25
2022-08-26T10:59:10.416Z,34.23
2022-08-26T11:00:34.201Z,34.13
2022-08-26T11:01:46.972Z,33.49
2022-08-26T11:02:52.450Z,33.45
2022-08-26T11:03:58.111Z,33.01
2022-08-26T11:05:04.391Z,33.00
2022-08-26T11:06:24.272Z,33.42
2022-08-26T11:07:32.692Z,32.97
2022-08-26T11:08:34.252Z,33.11
2022-08-26T11:09:45.848Z,32.69
2022-08-26T11:10:47.309Z,33.25
2022-08-26T11:11:50.813Z,33.06
2022-08-26T11:12:52.314Z,33.25
2022-08-26T11:13:57.962Z,33.41
2022-08-26T11:15:00.562Z,33.30
2022-08-26T11:16:03.068Z,33.51
2022-08-26T11:17:08.275Z,33.64
2022-08-26T11:18:11.478Z,33.55
2022-08-26T11:19:50.878Z,33.80
2022-08-26T11:20:56.266Z,33.87
2022-08-26T11:22:05.175Z,33.91
2022-08-26T11:23:12.513Z,33.91
2022-08-26T11:24:32.941Z,34.14
2022-08-26T11:25:37.696Z,33.99
2022-08-26T11:26:56.239Z,33.81
2022-08-26T11:27:58.872Z,33.78
2022-08-26T11:29:00.416Z,34.07
2022-08-26T11:30:13.939Z,34.16
2022-08-26T11:31:25.206Z,34.21
2022-08-26T11:32:44.947Z,34.40
2022-08-26T11:33:50.992Z,34.62
2022-08-26T11:34:57.026Z,34.23
2022-08-26T11:35:59.874Z,34.33
2022-08-26T11:37:13.124Z,34.38
2022-08-26T11:38:14.649Z,34.21
2022-08-26T11:39:16.647Z,34.32
2022-08-26T11:40:25.136Z,35.06
2022-08-26T11:41:29.802Z,35.01
2022-08-26T11:42:41.669Z,34.97
2022-08-26T11:43:45.726Z,35.62
2022-08-26T11:44:49.371Z,35.48
2022-08-26T11:46:04.547Z,35.75
2022-08-26T11:47:11.492Z,35.11
2022-08-26T11:48:22.016Z,35.13
2022-08-26T11:49:26.013Z,35.00
2022-08-26T11:50:28.104Z,35.22
2022-08-26T11:51:31.568Z,35.12
2022-08-26T11:52:33.473Z,35.23
2022-08-26T11:53:42.626Z,35.23
2022-08-26T11:55:20.084Z,34.71
2022-08-26T11:56:31.531Z,34.79
2022-08-26T11:57:34.465Z,35.10
2022-08-26T11:58:40.832Z,35.38
2022-08-26T11:59:43.549Z,35.55
2022-08-26T12:00:58.019Z,35.59
2022-08-26T12:01:59.538Z,35.73
2022-08-26T12:03:02.446Z,35.42
2022-08-26T12:04:05.011Z,35.50
2022-08-26T12:05:06.943Z,35.66
2022-08-26T12:06:14.471Z,35.18
2022-08-26T12:07:16.282Z,35.27
2022-08-26T12:08:21.578Z,34.75
2022-08-26T12:09:27.232Z,34.80
2022-08-26T12:10:32.734Z,34.47
2022-08-26T12:11:35.702Z,34.58
2022-08-26T12:12:40.296Z,34.11
2022-08-26T12:13:42.711Z,34.41
2022-08-26T12:14:44.331Z,34.21
2022-08-26T12:15:51.583Z,34.09
2022-08-26T12:16:57.214Z,34.24
2022-08-26T12:18:00.361Z,34.12
2022-08-26T12:19:01.929Z,33.88
2022-08-26T12:20:06.222Z,33.86
2022-08-26T12:21:12.565Z,33.76
2022-08-26T12:22:16.908Z,33.70
2022-08-26T12:23:24.558Z,33.76
2022-08-26T12:24:26.221Z,33.98
2022-08-26T12:25:28.106Z,33.72
2022-08-26T12:26:37.558Z,33.62
2022-08-26T12:27:41.530Z,33.43
2022-08-26T12:28:44.175Z,33.58
2022-08-26T12:29:48.457Z,33.37
2022-08-26T12:31:00.975Z,33.05
2022-08-26T12:32:09.448Z,32.54
2022-08-26T12:33:22.396Z,32.53
2022-08-26T12:34:25.791Z,32.59
2022-08-26T12:35:28.816Z,32.67
2022-08-26T12:36:32.355Z,32.58
2022-08-26T12:37:34.371Z,32.64
2022-08-26T12:38:37.215Z,32.60
2022-08-26T12:39:39.724Z,32.66
2022-08-26T12:40:44.275Z,32.70
2022-08-26T12:41:47.251Z,32.81
2022-08-26T12:42:48.843Z,32.97
2022-08-26T12:43:50.339Z,32.77
2022-08-26T12:44:54.870Z,32.64
2022-08-26T12:45:57.018Z,32.71
2022-08-26T12:47:09.368Z,32.75
2022-08-26T12:48:21.766Z,32.94
2022-08-26T12:49:26.087Z,32.71
2022-08-26T12:50:28.710Z,32.71
2022-08-26T12:51:31.079Z,32.72
2022-08-26T12:52:33.453Z,32.84
2022-08-26T12:53:35.350Z,32.77
2022-08-26T12:54:57.055Z,32.36
2022-08-26T12:56:03.739Z,32.42
2022-08-26T12:57:13.185Z,32.82
2022-08-26T12:58:22.649Z,32.79
2022-08-26T12:59:24.957Z,33.20
2022-08-26T13:00:30.486Z,32.82
2022-08-26T13:01:43.021Z,32.76
2022-08-26T13:02:44.738Z,32.77
2022-08-26T13:03:46.276Z,32.92
2022-08-26T13:04:47.784Z,32.67
2022-08-26T13:05:55.355Z,32.88
2022-08-26T13:07:32.258Z,32.67
2022-08-26T13:08:34.080Z,32.42
2022-08-26T13:09:35.567Z,32.33
2022-08-26T13:10:37.829Z,32.38
2022-08-26T13:11:39.278Z,32.41
2022-08-26T13:12:41.363Z,32.49
2022-08-26T13:13:42.851Z,32.55
2022-08-26T13:14:44.338Z,32.64
2022-08-26T13:15:46.146Z,32.94
2022-08-26T13:16:48.255Z,32.64
2022-08-26T13:17:49.819Z,32.71
2022-08-26T13:18:53.051Z,32.74
2022-08-26T13:19:54.612Z,32.67
2022-08-26T13:20:56.707Z,32.88
2022-08-26T13:21:59.078Z,32.45
2022-08-26T13:23:00.675Z,32.51
2022-08-26T13:24:06.761Z,32.33
2022-08-26T13:25:08.416Z,32.22
2022-08-26T13:26:10.112Z,32.31
2022-08-26T13:27:12.583Z,32.18
2022-08-26T13:28:14.150Z,32.49
2022-08-26T13:29:15.708Z,32.33
2022-08-26T13:30:17.302Z,32.25
2022-08-26T13:31:19.668Z,32.43
2022-08-26T13:32:22.472Z,32.48
2022-08-26T13:33:27.814Z,32.71
2022-08-26T13:34:29.740Z,32.79
2022-08-26T13:35:31.214Z,32.91
2022-08-26T13:36:32.709Z,32.94
2022-08-26T13:37:34.884Z,32.78
2022-08-26T13:38:37.092Z,32.93
2022-08-26T13:39:39.388Z,33.12
2022-08-26T13:40:43.240Z,32.96
2022-08-26T13:41:44.780Z,32.96
2022-08-26T13:42:49.722Z,33.11
2022-08-26T13:43:53.527Z,33.13
2022-08-26T13:44:57.999Z,32.90
2022-08-26T13:46:00.757Z,33.15
2022-08-26T13:47:02.243Z,33.01
2022-08-26T13:48:04.580Z,32.95
2022-08-26T13:49:06.336Z,32.98
2022-08-26T13:50:08.083Z,32.89
2022-08-26T13:51:09.710Z,32.77
2022-08-26T13:52:12.662Z,32.72